METAR Data

Data at: 2116 UTC 01 Dec 2021

METAR for:KWST (Westerly State Arpt, RI, US)
Text:KWST 012053Z AUTO 24003KT 10SM CLR 07/M02 A3012 RMK AO2 SLP200 T00721017 51005
Temperature: 7.2°C ( 45°F)
Dewpoint: -1.7°C ( 29°F) [RH = 53%]
Pressure (altimeter):30.12 inches Hg (1020.1 mb) [Sea level pressure: 1020.0 mb]
Winds:from the WSW (240 degrees) at 3 MPH (3 knots; 1.5 m/s)
Visibility:10 or more sm (16+ km)
Ceiling:at least 12,000 feet AGL
Clouds:sky clear below 12,000 feet AGL
QC Flag:automated observation with no human augmentation